createdAt,value
2019-01-09T00:00:32.479Z,11.83
2019-01-09T00:01:25.231Z,12.00
2019-01-09T00:02:00.654Z,12.07
2019-01-09T00:02:36.123Z,12.37
2019-01-09T00:03:11.516Z,7.50
2019-01-09T00:03:47.208Z,14.17
2019-01-09T00:04:22.585Z,11.13
2019-01-09T00:04:58.079Z,13.60
2019-01-09T00:05:33.587Z,13.17
2019-01-09T00:06:08.999Z,10.77
2019-01-09T00:06:44.463Z,12.53
2019-01-09T00:07:20.483Z,13.73
2019-01-09T00:07:56.010Z,13.70
2019-01-09T00:08:31.665Z,14.40
2019-01-09T00:09:08.290Z,9.87
2019-01-09T00:09:43.709Z,12.73
2019-01-09T00:10:19.455Z,7.90
2019-01-09T00:10:55.152Z,15.53
2019-01-09T00:11:30.805Z,12.03
2019-01-09T00:12:06.213Z,14.80
2019-01-09T00:12:41.883Z,12.17
2019-01-09T00:13:17.284Z,10.87
2019-01-09T00:13:53.105Z,11.63
2019-01-09T00:14:28.792Z,12.03
2019-01-09T00:15:04.446Z,10.40
2019-01-09T00:15:39.974Z,9.90
2019-01-09T00:16:15.351Z,6.30
2019-01-09T00:16:50.730Z,9.73
2019-01-09T00:17:26.166Z,12.50
2019-01-09T00:18:01.615Z,8.93
2019-01-09T00:18:37.624Z,9.87
2019-01-09T00:19:13.300Z,14.03
2019-01-09T00:19:48.768Z,12.40
2019-01-09T00:20:24.402Z,13.53
2019-01-09T00:21:00.067Z,12.10
2019-01-09T00:21:36.076Z,8.03
2019-01-09T00:22:12.052Z,7.70
2019-01-09T00:22:47.772Z,9.60
2019-01-09T00:23:23.871Z,15.17
2019-01-09T00:24:00.392Z,11.60
2019-01-09T00:24:35.860Z,7.93
2019-01-09T00:25:11.599Z,12.83
2019-01-09T00:25:47.501Z,9.10
2019-01-09T00:26:23.164Z,7.83
2019-01-09T00:26:59.279Z,12.80
2019-01-09T00:27:34.765Z,7.43
2019-01-09T00:28:10.194Z,8.17
2019-01-09T00:28:46.342Z,12.13
2019-01-09T00:29:22.015Z,10.87
2019-01-09T00:29:57.799Z,6.17
2019-01-09T00:30:33.563Z,7.47
2019-01-09T00:31:09.209Z,5.77
2019-01-09T00:31:44.601Z,8.97
2019-01-09T00:32:20.960Z,13.07
2019-01-09T00:32:56.908Z,8.80
2019-01-09T00:33:32.292Z,11.63
2019-01-09T00:34:07.751Z,6.50
2019-01-09T00:34:43.718Z,6.33
2019-01-09T00:35:20.090Z,11.00
2019-01-09T00:35:55.656Z,8.67
2019-01-09T00:36:31.565Z,10.20
2019-01-09T00:37:07.572Z,7.17
2019-01-09T00:37:43.832Z,6.90
2019-01-09T00:38:19.396Z,9.07
2019-01-09T00:38:55.118Z,9.13
2019-01-09T00:39:30.904Z,9.10
2019-01-09T00:40:07.122Z,9.97
2019-01-09T00:40:42.811Z,8.50
2019-01-09T00:41:18.612Z,8.77
2019-01-09T00:41:54.288Z,8.30
2019-01-09T00:42:30.590Z,11.73
2019-01-09T00:43:06.064Z,10.60
2019-01-09T00:43:41.928Z,9.20
2019-01-09T00:44:17.685Z,7.23
2019-01-09T00:44:53.188Z,8.07
2019-01-09T00:45:28.738Z,6.93
2019-01-09T00:46:04.282Z,8.67
2019-01-09T00:46:40.220Z,9.03
2019-01-09T00:47:15.853Z,8.57
2019-01-09T00:47:51.582Z,7.87
2019-01-09T00:48:26.981Z,6.23
2019-01-09T00:49:02.842Z,11.30
2019-01-09T00:49:38.762Z,10.53
2019-01-09T00:50:14.663Z,7.40
2019-01-09T00:50:50.321Z,7.57
2019-01-09T00:51:27.272Z,6.80
2019-01-09T00:52:02.789Z,9.90
2019-01-09T00:52:38.354Z,11.10
2019-01-09T00:53:13.830Z,10.20
2019-01-09T00:53:50.060Z,8.97
2019-01-09T00:54:25.446Z,6.10
2019-01-09T00:55:01.292Z,8.87
2019-01-09T00:55:36.716Z,6.27
2019-01-09T00:56:12.174Z,8.70
2019-01-09T00:56:47.597Z,7.83
2019-01-09T00:57:22.986Z,7.53
2019-01-09T00:57:58.663Z,6.87
2019-01-09T00:58:34.358Z,5.60
2019-01-09T00:59:10.292Z,10.37
2019-01-09T00:59:45.670Z,7.33
2019-01-09T01:00:21.801Z,8.07
2019-01-09T01:00:57.220Z,8.00
2019-01-09T01:01:32.646Z,6.07
2019-01-09T01:02:47.044Z,6.93
2019-01-09T01:04:14.781Z,10.00
2019-01-09T01:05:22.995Z,6.00
2019-01-09T01:06:43.871Z,7.20
2019-01-09T01:07:57.710Z,8.73
2019-01-09T01:09:16.495Z,8.83
2019-01-09T01:10:28.810Z,9.20
2019-01-09T01:11:37.769Z,8.37
2019-01-09T01:12:53.354Z,8.47
2019-01-09T01:13:53.824Z,9.20
2019-01-09T01:15:04.044Z,10.47
2019-01-09T01:16:19.161Z,6.87
2019-01-09T01:17:26.248Z,8.33
2019-01-09T01:18:32.028Z,6.73
2019-01-09T01:19:47.252Z,7.57
2019-01-09T01:20:57.192Z,8.40
2019-01-09T01:21:41.001Z,7.30
2019-01-09T01:23:09.362Z,10.57
2019-01-09T01:24:27.935Z,6.50
2019-01-09T01:25:43.888Z,8.77
2019-01-09T01:27:27.887Z,9.70
2019-01-09T01:28:37.145Z,10.97
2019-01-09T01:29:47.359Z,7.80
2019-01-09T01:30:55.042Z,8.13
2019-01-09T01:32:07.425Z,6.57
2019-01-09T01:33:12.123Z,8.27
2019-01-09T01:34:13.966Z,12.10
2019-01-09T01:35:45.415Z,12.03
2019-01-09T01:37:10.062Z,9.17
2019-01-09T01:38:47.746Z,11.43
2019-01-09T01:39:45.009Z,10.27
2019-01-09T01:40:44.264Z,12.93
2019-01-09T01:42:00.565Z,12.77
2019-01-09T01:43:11.335Z,10.87
2019-01-09T01:44:14.574Z,11.87
2019-01-09T01:45:08.482Z,10.70
2019-01-09T01:45:57.473Z,13.83
2019-01-09T01:47:03.377Z,7.57
2019-01-09T01:48:11.570Z,6.87
2019-01-09T01:49:24.853Z,7.93
2019-01-09T01:50:24.773Z,7.90
2019-01-09T01:51:49.474Z,5.00
2019-01-09T01:53:09.399Z,8.23
2019-01-09T01:54:24.917Z,7.40
2019-01-09T01:55:25.409Z,8.63
2019-01-09T01:56:38.437Z,8.80
2019-01-09T01:58:10.133Z,8.03
2019-01-09T01:59:19.817Z,8.13
2019-01-09T02:00:37.258Z,8.83
2019-01-09T02:01:41.635Z,12.97
2019-01-09T02:02:35.151Z,9.17
2019-01-09T02:03:53.118Z,8.63
2019-01-09T02:05:18.623Z,7.10
2019-01-09T02:06:04.304Z,6.97
2019-01-09T02:07:31.290Z,6.40
2019-01-09T02:08:32.159Z,8.60
2019-01-09T02:09:39.760Z,7.13
2019-01-09T02:10:51.687Z,4.83
2019-01-09T02:12:20.206Z,7.13
2019-01-09T02:13:35.036Z,5.43
2019-01-09T02:14:57.753Z,4.80
2019-01-09T02:16:20.007Z,5.20
2019-01-09T02:17:48.012Z,4.17
2019-01-09T02:18:38.235Z,10.63
2019-01-09T02:19:28.038Z,8.50
2019-01-09T02:20:49.384Z,11.53
2019-01-09T02:21:36.360Z,6.27
2019-01-09T02:23:03.754Z,6.33
2019-01-09T02:24:27.706Z,5.83
2019-01-09T02:25:29.376Z,6.43
2019-01-09T02:26:46.974Z,6.53
2019-01-09T02:27:45.185Z,7.67
2019-01-09T02:29:07.908Z,7.43
2019-01-09T02:30:36.083Z,6.13
2019-01-09T02:31:55.202Z,7.13
2019-01-09T02:32:34.325Z,6.67
2019-01-09T02:33:09.853Z,7.10
2019-01-09T02:33:45.507Z,7.87
2019-01-09T02:34:20.949Z,5.63
2019-01-09T02:34:56.345Z,9.77
2019-01-09T02:35:31.780Z,6.93
2019-01-09T02:36:13.399Z,10.27
2019-01-09T02:36:44.708Z,6.00
2019-01-09T02:37:20.361Z,5.73
2019-01-09T02:37:55.755Z,7.40
2019-01-09T02:38:31.428Z,7.33
2019-01-09T02:39:07.214Z,6.40
2019-01-09T02:39:42.620Z,5.50
2019-01-09T02:40:18.011Z,4.27
2019-01-09T02:40:53.460Z,7.07
2019-01-09T02:41:29.125Z,6.13
2019-01-09T02:42:04.534Z,5.17
2019-01-09T02:42:40.257Z,4.03
2019-01-09T02:43:15.671Z,5.27
2019-01-09T02:43:51.182Z,6.70
2019-01-09T02:44:32.185Z,7.93
2019-01-09T02:45:03.712Z,4.67
2019-01-09T02:45:39.160Z,10.03
2019-01-09T02:46:14.636Z,7.77
2019-01-09T02:46:50.007Z,5.43
2019-01-09T02:47:25.430Z,8.37
2019-01-09T02:48:01.121Z,7.17
2019-01-09T02:48:36.864Z,6.43
2019-01-09T02:49:12.244Z,8.23
2019-01-09T02:49:47.888Z,4.33
2019-01-09T02:50:23.277Z,8.53
2019-01-09T02:50:58.996Z,7.63
2019-01-09T02:51:34.702Z,5.37
2019-01-09T02:52:10.156Z,7.83
2019-01-09T02:52:45.538Z,6.40
2019-01-09T02:53:20.934Z,8.13
2019-01-09T02:53:56.581Z,5.00
2019-01-09T02:54:32.257Z,7.80
2019-01-09T02:55:08.756Z,8.27
2019-01-09T02:55:44.265Z,7.10
2019-01-09T02:56:19.983Z,6.23
2019-01-09T02:56:55.384Z,5.63
2019-01-09T02:57:30.839Z,5.17
2019-01-09T02:58:07.940Z,5.87
2019-01-09T02:58:43.614Z,6.10
2019-01-09T02:59:19.233Z,7.47
2019-01-09T02:59:54.622Z,5.33
2019-01-09T03:00:30.094Z,7.33
2019-01-09T03:01:05.482Z,5.57
2019-01-09T03:01:40.917Z,7.07
2019-01-09T03:02:16.300Z,4.07
2019-01-09T03:02:52.023Z,6.53
2019-01-09T03:03:27.423Z,7.47
2019-01-09T03:04:03.407Z,6.83
2019-01-09T03:04:38.788Z,4.93
2019-01-09T03:05:14.766Z,5.90
2019-01-09T03:05:50.448Z,4.70
2019-01-09T03:06:26.100Z,3.20
2019-01-09T03:07:01.592Z,7.13
2019-01-09T03:07:37.054Z,5.10
2019-01-09T03:08:12.500Z,5.73
2019-01-09T03:08:47.899Z,4.00
2019-01-09T03:09:23.284Z,5.60
2019-01-09T03:09:58.695Z,2.30
2019-01-09T03:10:34.687Z,4.97
2019-01-09T03:11:10.142Z,6.50
2019-01-09T03:11:45.826Z,5.40
2019-01-09T03:12:21.247Z,7.40
2019-01-09T03:12:56.799Z,6.07
2019-01-09T03:13:32.552Z,4.63
2019-01-09T03:14:08.247Z,5.30
2019-01-09T03:14:43.645Z,5.10
2019-01-09T03:15:19.050Z,8.00
2019-01-09T03:15:54.495Z,5.00
2019-01-09T03:16:30.104Z,6.87
2019-01-09T03:17:05.493Z,6.33
2019-01-09T03:17:40.915Z,3.87
2019-01-09T03:18:16.311Z,6.90
2019-01-09T03:18:52.293Z,3.93
2019-01-09T03:19:27.703Z,5.70
2019-01-09T03:20:03.219Z,4.57
2019-01-09T03:20:38.645Z,6.23
2019-01-09T03:21:14.315Z,4.43
2019-01-09T03:21:49.935Z,7.10
2019-01-09T03:22:25.595Z,4.87
2019-01-09T03:23:01.034Z,5.90
2019-01-09T03:23:36.454Z,5.90
2019-01-09T03:24:11.862Z,5.57
2019-01-09T03:24:47.357Z,4.83
2019-01-09T03:25:23.082Z,9.77
2019-01-09T03:25:58.534Z,5.50
2019-01-09T03:26:33.961Z,9.40
2019-01-09T03:27:09.766Z,8.57
2019-01-09T03:27:45.424Z,4.80
2019-01-09T03:28:21.135Z,7.07
2019-01-09T03:28:56.554Z,5.13
2019-01-09T03:29:32.385Z,6.90
2019-01-09T03:30:08.373Z,3.83
2019-01-09T03:30:43.864Z,5.63
2019-01-09T03:31:19.646Z,4.70
2019-01-09T03:31:55.042Z,4.23
2019-01-09T03:32:30.480Z,4.87
2019-01-09T03:33:06.096Z,4.00
2019-01-09T03:33:41.483Z,4.10
2019-01-09T03:34:17.144Z,6.87
2019-01-09T03:34:52.543Z,3.57
2019-01-09T03:35:28.487Z,5.30
2019-01-09T03:36:04.062Z,5.73
2019-01-09T03:36:39.452Z,3.60
2019-01-09T03:37:15.389Z,6.67
2019-01-09T03:37:50.783Z,4.10
2019-01-09T03:38:26.195Z,4.50
2019-01-09T03:39:01.928Z,5.53
2019-01-09T03:39:37.946Z,5.23
2019-01-09T03:40:13.351Z,4.13
2019-01-09T03:40:49.097Z,4.47
2019-01-09T03:41:24.498Z,4.23
2019-01-09T03:41:59.951Z,3.27
2019-01-09T03:42:35.662Z,5.67
2019-01-09T03:43:11.081Z,4.43
2019-01-09T03:43:46.769Z,7.30
2019-01-09T03:44:22.240Z,5.13
2019-01-09T03:44:57.979Z,7.00
2019-01-09T03:45:33.787Z,5.90
2019-01-09T03:46:09.522Z,6.17
2019-01-09T03:46:45.159Z,8.47
2019-01-09T03:47:20.552Z,5.97
2019-01-09T03:47:56.214Z,5.47
2019-01-09T03:48:31.643Z,3.40
2019-01-09T03:49:07.159Z,6.97
2019-01-09T03:49:42.543Z,6.73
2019-01-09T03:50:18.004Z,3.97
2019-01-09T03:50:53.574Z,5.13
2019-01-09T03:51:29.018Z,6.97
2019-01-09T03:52:05.277Z,5.97
2019-01-09T03:52:40.687Z,4.83
2019-01-09T03:53:16.324Z,5.17
2019-01-09T03:53:52.019Z,8.33
2019-01-09T03:54:27.738Z,8.20
2019-01-09T03:55:03.196Z,6.27
2019-01-09T03:55:38.887Z,6.53
2019-01-09T03:56:14.288Z,3.70
2019-01-09T03:56:49.653Z,9.10
2019-01-09T03:57:25.641Z,10.90
2019-01-09T03:58:01.060Z,5.60
2019-01-09T03:58:36.468Z,4.93
2019-01-09T03:59:12.189Z,7.43
2019-01-09T03:59:48.109Z,4.93
2019-01-09T04:00:23.834Z,6.30
2019-01-09T04:00:59.299Z,6.83
2019-01-09T04:01:34.759Z,5.73
2019-01-09T04:02:10.184Z,8.10
2019-01-09T04:02:45.900Z,4.70
2019-01-09T04:03:21.266Z,5.83
2019-01-09T04:03:57.004Z,10.90
2019-01-09T04:04:32.414Z,7.57
2019-01-09T04:05:07.843Z,6.90
2019-01-09T04:05:43.507Z,8.77
2019-01-09T04:06:18.938Z,5.17
2019-01-09T04:06:54.652Z,6.10
2019-01-09T04:07:30.197Z,9.07
2019-01-09T04:08:05.596Z,6.10
2019-01-09T04:08:40.964Z,5.47
2019-01-09T04:09:16.679Z,7.10
2019-01-09T04:09:52.372Z,5.10
2019-01-09T04:10:27.774Z,3.63
2019-01-09T04:11:03.201Z,7.27
2019-01-09T04:11:39.160Z,5.93
2019-01-09T04:12:14.552Z,7.53
2019-01-09T04:12:50.276Z,6.87
2019-01-09T04:13:25.660Z,5.50
2019-01-09T04:14:01.359Z,6.00
2019-01-09T04:14:37.033Z,7.07
2019-01-09T04:15:12.701Z,5.37
2019-01-09T04:15:48.076Z,6.83
2019-01-09T04:16:23.773Z,10.43
2019-01-09T04:16:59.172Z,7.93
2019-01-09T04:17:34.583Z,5.00
2019-01-09T04:18:10.256Z,7.60
2019-01-09T04:18:45.732Z,5.73
2019-01-09T04:19:21.392Z,6.03
2019-01-09T04:19:56.814Z,4.77
2019-01-09T04:20:32.259Z,5.80
2019-01-09T04:21:07.941Z,4.97
2019-01-09T04:21:43.696Z,5.23
2019-01-09T04:22:20.520Z,5.93
2019-01-09T04:22:56.312Z,4.37
2019-01-09T04:23:32.013Z,3.43
2019-01-09T04:24:07.448Z,5.93
2019-01-09T04:24:43.109Z,5.93
2019-01-09T04:25:20.112Z,4.43
2019-01-09T04:25:55.467Z,4.67
2019-01-09T04:26:30.937Z,4.20
2019-01-09T04:27:06.380Z,6.37
2019-01-09T04:27:41.773Z,5.37
2019-01-09T04:28:17.160Z,4.90
2019-01-09T04:28:52.535Z,3.20
2019-01-09T04:29:28.190Z,4.07
2019-01-09T04:30:03.697Z,4.27
2019-01-09T04:30:39.104Z,6.07
2019-01-09T04:31:14.502Z,4.37
2019-01-09T04:31:50.236Z,4.50
2019-01-09T04:32:25.630Z,3.17
2019-01-09T04:33:01.402Z,2.17
2019-01-09T04:33:36.862Z,3.73
2019-01-09T04:34:12.343Z,2.73
2019-01-09T04:34:47.736Z,5.73
2019-01-09T04:35:23.408Z,2.60
2019-01-09T04:35:58.835Z,2.97
2019-01-09T04:36:34.602Z,4.23
2019-01-09T04:37:10.232Z,5.17
2019-01-09T04:37:45.667Z,2.63
2019-01-09T04:38:21.076Z,3.87
2019-01-09T04:38:56.458Z,3.27
2019-01-09T04:39:31.877Z,4.67
2019-01-09T04:40:07.408Z,3.37
2019-01-09T04:40:42.837Z,2.37
2019-01-09T04:41:18.253Z,3.07
2019-01-09T04:41:54.031Z,2.60
2019-01-09T04:42:29.522Z,2.77
2019-01-09T04:43:04.977Z,3.43
2019-01-09T04:43:40.397Z,3.40
2019-01-09T04:44:16.356Z,2.60
2019-01-09T04:44:51.756Z,1.80
2019-01-09T04:45:27.146Z,1.50
2019-01-09T04:46:02.943Z,2.47
2019-01-09T04:46:38.723Z,2.50
2019-01-09T04:47:14.101Z,2.93
2019-01-09T04:47:49.848Z,1.33
2019-01-09T04:48:25.229Z,1.73
2019-01-09T04:49:00.921Z,1.53
2019-01-09T04:49:36.361Z,2.33
2019-01-09T04:50:11.741Z,3.97
2019-01-09T04:50:47.669Z,2.50
2019-01-09T04:51:23.071Z,4.53
2019-01-09T04:51:58.507Z,2.93
2019-01-09T04:52:33.908Z,1.70
2019-01-09T04:53:09.319Z,1.87
2019-01-09T04:53:44.705Z,2.23
2019-01-09T04:54:20.626Z,2.13
2019-01-09T04:54:55.996Z,1.83
2019-01-09T04:55:31.418Z,0.60
2019-01-09T04:56:07.424Z,3.20
2019-01-09T04:56:43.136Z,2.80
2019-01-09T04:57:18.805Z,1.80
2019-01-09T04:57:54.182Z,3.50
2019-01-09T04:58:29.591Z,1.73
2019-01-09T04:59:04.989Z,2.40
2019-01-09T04:59:40.371Z,2.00
2019-01-09T05:00:15.765Z,2.77
2019-01-09T05:00:51.705Z,1.30
2019-01-09T05:01:27.424Z,1.83
2019-01-09T05:02:02.924Z,1.60
2019-01-09T05:02:38.392Z,1.10
2019-01-09T05:03:13.779Z,5.27
2019-01-09T05:03:49.155Z,2.40
2019-01-09T05:04:24.553Z,2.23
2019-01-09T05:05:00.369Z,2.83
2019-01-09T05:05:35.770Z,3.27
2019-01-09T05:06:11.173Z,1.57
2019-01-09T05:06:46.990Z,2.40
2019-01-09T05:07:22.394Z,1.27
2019-01-09T05:07:58.680Z,1.67
2019-01-09T05:08:34.112Z,1.77
2019-01-09T05:09:09.622Z,1.73
2019-01-09T05:09:45.351Z,3.50
2019-01-09T05:10:21.014Z,0.87
2019-01-09T05:10:56.699Z,0.93
2019-01-09T05:11:32.388Z,2.33
2019-01-09T05:12:07.868Z,2.80
2019-01-09T05:12:43.242Z,0.80
2019-01-09T05:13:18.672Z,2.93
2019-01-09T05:13:54.070Z,2.00
2019-01-09T05:14:29.513Z,1.57
2019-01-09T05:15:05.166Z,1.33
2019-01-09T05:15:40.576Z,2.50
2019-01-09T05:16:16.010Z,3.40
2019-01-09T05:16:51.757Z,0.47
2019-01-09T05:17:27.155Z,1.03
2019-01-09T05:18:02.952Z,0.70
2019-01-09T05:18:38.405Z,1.93
2019-01-09T05:19:13.794Z,2.13
2019-01-09T05:19:49.223Z,1.97
2019-01-09T05:20:24.603Z,2.47
2019-01-09T05:21:00.250Z,1.23
2019-01-09T05:21:35.656Z,1.20
2019-01-09T05:22:11.121Z,1.40
2019-01-09T05:22:46.797Z,2.23
2019-01-09T05:23:22.463Z,1.47
2019-01-09T05:23:57.936Z,1.67
2019-01-09T05:24:33.404Z,2.03
2019-01-09T05:25:08.852Z,2.03
2019-01-09T05:25:44.671Z,2.03
2019-01-09T05:26:20.156Z,0.93
2019-01-09T05:26:55.905Z,0.77
2019-01-09T05:27:31.673Z,2.93
2019-01-09T05:28:07.446Z,2.20
2019-01-09T05:28:42.842Z,1.63
2019-01-09T05:29:18.533Z,3.27
2019-01-09T05:29:53.956Z,2.73
2019-01-09T05:30:29.339Z,1.27
2019-01-09T05:31:07.620Z,1.80
2019-01-09T05:31:42.256Z,3.20
2019-01-09T05:32:17.675Z,1.60
2019-01-09T05:32:53.106Z,0.97
2019-01-09T05:33:28.954Z,1.63
2019-01-09T05:34:04.609Z,2.40
2019-01-09T05:34:40.023Z,2.60
2019-01-09T05:35:15.440Z,2.50
2019-01-09T05:35:50.847Z,1.57
2019-01-09T05:36:26.485Z,3.43
2019-01-09T05:37:09.360Z,2.33
2019-01-09T05:37:39.330Z,1.70
2019-01-09T05:38:15.007Z,1.40
2019-01-09T05:38:50.405Z,1.67
2019-01-09T05:39:26.133Z,2.43
2019-01-09T05:40:01.529Z,4.33
2019-01-09T05:40:36.934Z,1.77
2019-01-09T05:41:12.891Z,1.40
2019-01-09T05:41:48.291Z,3.57
2019-01-09T05:42:23.970Z,2.77
2019-01-09T05:42:59.695Z,3.60
2019-01-09T05:43:35.120Z,1.83
2019-01-09T05:44:10.535Z,2.47
2019-01-09T05:44:46.190Z,2.73
2019-01-09T05:45:21.616Z,2.33
2019-01-09T05:45:57.044Z,2.40
2019-01-09T05:46:32.447Z,3.00
2019-01-09T05:47:07.980Z,1.80
2019-01-09T05:47:43.703Z,1.47
2019-01-09T05:48:19.748Z,3.93
2019-01-09T05:48:55.407Z,3.67
2019-01-09T05:49:30.838Z,2.23
2019-01-09T05:50:06.374Z,4.20
2019-01-09T05:50:42.331Z,1.63
2019-01-09T05:51:17.724Z,2.23
2019-01-09T05:51:53.106Z,1.67
2019-01-09T05:52:28.573Z,1.33
2019-01-09T05:53:04.081Z,1.97
2019-01-09T05:53:39.968Z,1.70
2019-01-09T05:54:15.616Z,2.17
2019-01-09T05:54:51.439Z,1.57
2019-01-09T05:55:26.819Z,2.43
2019-01-09T05:56:02.549Z,1.53
2019-01-09T05:56:38.169Z,1.57
2019-01-09T05:57:13.836Z,1.77
2019-01-09T05:57:49.218Z,3.27
2019-01-09T05:58:24.616Z,1.73
2019-01-09T05:59:00.335Z,2.63
2019-01-09T05:59:35.761Z,6.57
2019-01-09T06:00:11.391Z,4.50
2019-01-09T06:00:47.043Z,3.23
2019-01-09T06:01:22.547Z,3.00
2019-01-09T06:01:57.922Z,3.53
2019-01-09T06:02:33.382Z,4.30
2019-01-09T06:03:08.817Z,3.10
2019-01-09T06:03:44.175Z,1.97
2019-01-09T06:04:19.908Z,4.67
2019-01-09T06:04:55.330Z,4.20
2019-01-09T06:05:30.998Z,4.67
2019-01-09T06:06:06.449Z,3.93
2019-01-09T06:06:41.844Z,2.83
2019-01-09T06:07:18.608Z,3.23
2019-01-09T06:07:54.233Z,2.17
2019-01-09T06:08:30.024Z,5.13
2019-01-09T06:09:06.708Z,5.20
2019-01-09T06:09:42.111Z,3.77
2019-01-09T06:10:17.501Z,2.80
2019-01-09T06:10:53.185Z,5.20
2019-01-09T06:11:29.199Z,4.80
2019-01-09T06:12:04.623Z,4.03
2019-01-09T06:12:40.049Z,5.60
2019-01-09T06:13:15.751Z,5.63
2019-01-09T06:13:51.144Z,4.40
2019-01-09T06:14:26.781Z,6.40
2019-01-09T06:15:02.229Z,7.50
2019-01-09T06:15:37.616Z,7.53
2019-01-09T06:16:13.306Z,5.07
2019-01-09T06:16:48.681Z,4.17
2019-01-09T06:17:24.363Z,4.73
2019-01-09T06:17:59.886Z,4.27
2019-01-09T06:18:35.316Z,5.83
2019-01-09T06:19:10.739Z,4.27
2019-01-09T06:19:46.742Z,10.40
2019-01-09T06:20:22.170Z,4.20
2019-01-09T06:20:57.570Z,6.63
2019-01-09T06:21:32.998Z,3.63
2019-01-09T06:22:08.803Z,5.50
2019-01-09T06:22:44.535Z,4.43
2019-01-09T06:23:20.276Z,5.63
2019-01-09T06:23:55.707Z,9.17
2019-01-09T06:24:31.761Z,3.57
2019-01-09T06:25:07.361Z,5.33
2019-01-09T06:25:42.780Z,4.27
2019-01-09T06:26:18.533Z,5.87
2019-01-09T06:26:54.302Z,5.17
2019-01-09T06:27:29.742Z,7.30
2019-01-09T06:28:05.222Z,5.37
2019-01-09T06:28:40.611Z,4.87
2019-01-09T06:29:16.025Z,6.67
2019-01-09T06:29:51.694Z,4.70
2019-01-09T06:30:27.121Z,8.20
2019-01-09T06:31:02.616Z,7.83
2019-01-09T06:31:38.093Z,9.63
2019-01-09T06:32:13.765Z,6.93
2019-01-09T06:32:49.484Z,4.37
2019-01-09T06:33:25.180Z,8.37
2019-01-09T06:34:00.962Z,5.47
2019-01-09T06:34:36.484Z,6.50
2019-01-09T06:35:12.472Z,6.67
2019-01-09T06:35:47.913Z,6.67
2019-01-09T06:36:23.420Z,7.17
2019-01-09T06:36:58.831Z,4.80
2019-01-09T06:37:34.607Z,4.60
2019-01-09T06:38:10.345Z,4.80
2019-01-09T06:38:45.738Z,7.83
2019-01-09T06:39:21.388Z,4.50
2019-01-09T06:39:56.795Z,5.07
2019-01-09T06:40:32.519Z,6.17
2019-01-09T06:41:08.192Z,7.60
2019-01-09T06:41:43.865Z,8.63
2019-01-09T06:42:19.553Z,4.40
2019-01-09T06:42:55.250Z,7.70
2019-01-09T06:43:31.016Z,4.80
2019-01-09T06:44:06.429Z,5.73
2019-01-09T06:44:41.812Z,3.80
2019-01-09T06:45:17.258Z,6.03
2019-01-09T06:45:52.678Z,5.17
2019-01-09T06:46:28.402Z,5.60
2019-01-09T06:47:03.885Z,6.83
2019-01-09T06:47:39.308Z,8.07
2019-01-09T06:48:15.012Z,5.70
2019-01-09T06:48:50.429Z,4.40
2019-01-09T06:49:26.049Z,4.90
2019-01-09T06:50:01.470Z,9.90
2019-01-09T06:50:36.929Z,4.50
2019-01-09T06:51:12.597Z,6.87
2019-01-09T06:51:47.983Z,8.10
2019-01-09T06:52:23.612Z,7.13
2019-01-09T06:52:59.374Z,6.83
2019-01-09T06:53:34.810Z,5.07
2019-01-09T06:54:10.214Z,2.90
2019-01-09T06:54:45.592Z,5.33
2019-01-09T06:55:20.943Z,4.47
2019-01-09T06:55:56.668Z,4.43
2019-01-09T06:56:32.094Z,2.77
2019-01-09T06:57:07.505Z,5.30
2019-01-09T06:57:43.158Z,3.50
2019-01-09T06:58:20.201Z,5.70
2019-01-09T06:58:55.689Z,4.80
2019-01-09T06:59:31.405Z,2.80
2019-01-09T07:00:08.123Z,4.70
2019-01-09T07:00:43.782Z,3.33
2019-01-09T07:01:19.435Z,5.67
2019-01-09T07:01:54.833Z,5.20
2019-01-09T07:02:30.279Z,6.93
2019-01-09T07:03:06.067Z,5.13
2019-01-09T07:03:41.436Z,4.43
2019-01-09T07:04:16.830Z,5.40
2019-01-09T07:04:52.529Z,2.83
2019-01-09T07:05:28.196Z,3.97
2019-01-09T07:06:03.689Z,5.43
2019-01-09T07:06:39.663Z,6.23
2019-01-09T07:07:15.039Z,4.97
2019-01-09T07:07:50.520Z,6.20
2019-01-09T07:08:26.546Z,4.20
2019-01-09T07:09:01.893Z,3.80
2019-01-09T07:09:37.552Z,3.30
2019-01-09T07:10:12.944Z,5.23
2019-01-09T07:10:48.318Z,6.80
2019-01-09T07:11:23.968Z,3.67
2019-01-09T07:11:59.944Z,3.93
2019-01-09T07:12:35.472Z,3.30
2019-01-09T07:13:10.931Z,4.10
2019-01-09T07:13:46.600Z,3.50
2019-01-09T07:14:22.009Z,5.33
2019-01-09T07:14:57.741Z,2.63
2019-01-09T07:15:33.487Z,3.33
2019-01-09T07:16:08.886Z,5.93
2019-01-09T07:16:44.320Z,3.40
2019-01-09T07:17:19.992Z,5.57
2019-01-09T07:17:55.398Z,5.10
2019-01-09T07:18:31.155Z,4.33
2019-01-09T07:19:06.591Z,6.37
2019-01-09T07:19:41.991Z,5.50
2019-01-09T07:20:17.426Z,5.30
2019-01-09T07:20:53.134Z,4.27
2019-01-09T07:21:28.575Z,4.63
2019-01-09T07:22:04.119Z,6.47
2019-01-09T07:22:40.070Z,7.47
2019-01-09T07:23:15.816Z,6.73
2019-01-09T07:23:51.515Z,4.23
2019-01-09T07:24:26.946Z,8.43
2019-01-09T07:25:02.409Z,8.03
2019-01-09T07:25:37.812Z,5.50
2019-01-09T07:26:13.475Z,3.87
2019-01-09T07:26:48.872Z,3.80
2019-01-09T07:27:24.259Z,6.40
2019-01-09T07:27:59.968Z,5.57
2019-01-09T07:28:35.464Z,4.40
2019-01-09T07:29:10.871Z,5.27
2019-01-09T07:29:46.254Z,3.33
2019-01-09T07:30:21.895Z,7.30
2019-01-09T07:30:57.289Z,7.27
2019-01-09T07:31:33.031Z,5.43
2019-01-09T07:32:08.716Z,5.93
2019-01-09T07:32:44.147Z,4.33
2019-01-09T07:33:19.801Z,8.13
2019-01-09T07:33:55.223Z,2.67
2019-01-09T07:34:30.713Z,3.87
2019-01-09T07:35:06.163Z,5.63
2019-01-09T07:35:41.561Z,4.73
2019-01-09T07:36:16.954Z,4.93
2019-01-09T07:36:52.898Z,4.00
2019-01-09T07:37:28.334Z,6.00
2019-01-09T07:38:04.379Z,8.20
2019-01-09T07:38:39.794Z,5.37
2019-01-09T07:39:16.935Z,3.67
2019-01-09T07:39:52.724Z,6.07
2019-01-09T07:40:28.129Z,6.60
2019-01-09T07:41:03.845Z,6.77
2019-01-09T07:41:39.239Z,5.20
2019-01-09T07:42:14.646Z,7.03
2019-01-09T07:42:50.053Z,3.30
2019-01-09T07:43:25.686Z,4.57
2019-01-09T07:44:01.179Z,5.27
2019-01-09T07:44:36.594Z,8.37
2019-01-09T07:45:11.969Z,4.73
2019-01-09T07:45:47.601Z,7.93
2019-01-09T07:46:22.991Z,4.33
2019-01-09T07:46:58.379Z,3.00
2019-01-09T07:47:33.798Z,7.20
2019-01-09T07:48:09.825Z,4.27
2019-01-09T07:48:45.565Z,4.73
2019-01-09T07:49:21.248Z,4.33
2019-01-09T07:49:56.666Z,5.80
2019-01-09T07:50:32.388Z,8.23
2019-01-09T07:51:07.809Z,4.17
2019-01-09T07:51:43.447Z,3.90
2019-01-09T07:52:18.870Z,8.93
2019-01-09T07:52:54.754Z,5.70
2019-01-09T07:53:30.493Z,8.43
2019-01-09T07:54:05.998Z,5.53
2019-01-09T07:54:41.979Z,4.70
2019-01-09T07:55:17.648Z,3.83
2019-01-09T07:55:53.306Z,4.40
2019-01-09T07:56:29.416Z,7.23
2019-01-09T07:57:04.886Z,6.17
2019-01-09T07:57:40.538Z,4.40
2019-01-09T07:58:16.676Z,7.97
2019-01-09T07:58:52.106Z,5.97
2019-01-09T07:59:27.772Z,7.97
2019-01-09T08:00:03.437Z,4.23
2019-01-09T08:00:38.825Z,7.70
2019-01-09T08:01:14.255Z,5.97
2019-01-09T08:01:50.199Z,5.70
2019-01-09T08:02:25.586Z,7.50
2019-01-09T08:03:01.077Z,8.67
2019-01-09T08:03:36.563Z,6.87
2019-01-09T08:04:12.084Z,3.80
2019-01-09T08:04:47.530Z,3.33
2019-01-09T08:05:22.958Z,6.37
2019-01-09T08:06:00.962Z,4.13
2019-01-09T08:06:36.463Z,5.50
2019-01-09T08:07:11.876Z,6.40
2019-01-09T08:07:53.846Z,6.00
2019-01-09T08:08:24.442Z,9.20
2019-01-09T08:08:59.909Z,5.73
2019-01-09T08:09:35.403Z,5.10
2019-01-09T08:10:11.207Z,6.80
2019-01-09T08:10:46.595Z,5.07
2019-01-09T08:11:21.977Z,5.67
2019-01-09T08:11:57.400Z,6.20
2019-01-09T08:12:32.885Z,3.97
2019-01-09T08:13:08.310Z,3.23
2019-01-09T08:13:43.768Z,5.47
2019-01-09T08:14:19.729Z,7.43
2019-01-09T08:14:55.149Z,6.27
2019-01-09T08:15:30.603Z,7.17
2019-01-09T08:16:06.294Z,10.10
2019-01-09T08:16:41.683Z,4.63
2019-01-09T08:17:17.076Z,3.27
2019-01-09T08:17:52.708Z,5.43
2019-01-09T08:18:28.216Z,4.20
2019-01-09T08:19:04.011Z,4.50
2019-01-09T08:19:39.416Z,6.80
2019-01-09T08:20:14.818Z,5.70
2019-01-09T08:20:50.240Z,5.13
2019-01-09T08:21:25.628Z,6.53
2019-01-09T08:22:01.147Z,9.40
2019-01-09T08:22:36.565Z,6.07
2019-01-09T08:23:11.964Z,5.17
2019-01-09T08:23:47.637Z,5.67
2019-01-09T08:24:23.359Z,4.73
2019-01-09T08:24:58.821Z,6.80
2019-01-09T08:25:34.803Z,6.97
2019-01-09T08:26:10.180Z,6.30
2019-01-09T08:26:45.658Z,4.53
2019-01-09T08:27:21.343Z,6.23
2019-01-09T08:27:57.071Z,4.30
2019-01-09T08:28:32.511Z,5.50
2019-01-09T08:29:08.058Z,6.83
2019-01-09T08:29:43.568Z,6.60
2019-01-09T08:30:18.939Z,5.53
2019-01-09T08:30:54.343Z,7.57
2019-01-09T08:31:30.150Z,7.40
2019-01-09T08:32:05.548Z,5.13
2019-01-09T08:32:41.544Z,7.57
2019-01-09T08:33:17.183Z,8.03
2019-01-09T08:33:52.937Z,4.83
2019-01-09T08:34:28.587Z,5.50
2019-01-09T08:35:04.142Z,7.13
2019-01-09T08:35:39.589Z,6.90
2019-01-09T08:36:14.977Z,7.40
2019-01-09T08:36:50.368Z,3.30
2019-01-09T08:37:25.769Z,5.83
2019-01-09T08:38:03.007Z,4.67
2019-01-09T08:38:38.351Z,9.23
2019-01-09T08:39:15.571Z,6.50